Gilleleje, Denmark
Current Conditions -  °F | °C
As of 9:50 AM on Wednesday 22 Oct 2014 (Local Time) from ESTA Reporting Station
Light Rain Light Rain  
Wind Chill: 54°   Ceiling: Unl
Heat Index: 54°   Visibility: 6mi
Dew Point: 50°   Wind: 12mph
Humidity: 88%   Direction: 70°ENE
Pressure: 29.62"   Gusts: NA
Location:  56.12°N, 12.31°E
Report Text: ESTA 220750Z 07010KT 9999 -RA FEW066 SCT110 12/10 Q1003
Loading
Personal Weather Stations






























Interactive Weather Map
Tropical Storm Tracking
New forecast layout! Learn more

10-Day Weather Forecast

Advertisements
Track Severe Weather on mobile